Time;durP1;ratioP1;P1;durP2;ratioP2;P2;SDS_P1;SDS_P2;PMS_P1;PMS_P2;Temp;Humidity;BMP_temperature;BMP_pressure;BME280_temperature;BME280_humidity;BME280_pressure;Samples;Min_cycle;Max_cycle;Signal;HPM_P1;HPM_P2
2022/12/01 00:00:55;;;;;;;79.95;36.72;;;6.10;99.90;;;;;;7381771;19;20062;-51
2022/12/01 00:03:22;;;;;;;77.75;36.60;;;6.10;99.90;;;;;;7380123;19;20046;-50
2022/12/01 00:05:58;;;;;;;78.00;35.67;;;6.10;99.90;;;;;;7381750;19;20051;-48
2022/12/01 00:08:24;;;;;;;84.72;37.20;;;6.10;99.90;;;;;;7381650;19;20014;-49
2022/12/01 00:10:50;;;;;;;82.50;40.08;;;6.00;99.90;;;;;;7383274;19;20460;-51
2022/12/01 00:13:16;;;;;;;75.82;37.67;;;6.00;99.90;;;;;;7382163;19;20362;-46
2022/12/01 00:15:42;;;;;;;84.00;38.50;;;6.00;99.90;;;;;;7384956;19;20379;-47
2022/12/01 00:18:09;;;;;;;77.82;35.88;;;6.00;99.90;;;;;;7382220;19;20022;-47
2022/12/01 00:20:39;;;;;;;83.25;36.10;;;6.00;99.90;;;;;;7378348;19;20018;-47
2022/12/01 00:23:05;;;;;;;76.75;36.20;;;6.00;99.90;;;;;;7376449;19;20014;-49
2022/12/01 00:25:31;;;;;;;82.10;37.20;;;6.00;99.90;;;;;;7377852;19;20021;-50
2022/12/01 00:27:58;;;;;;;77.55;35.50;;;6.00;99.90;;;;;;7380305;19;20043;-50
2022/12/01 00:30:24;;;;;;;79.00;36.40;;;6.00;99.90;;;;;;7382785;19;20018;-49
2022/12/01 00:32:50;;;;;;;76.85;35.45;;;6.00;99.90;;;;;;7381934;19;20020;-45
2022/12/01 00:35:16;;;;;;;81.10;36.67;;;6.00;99.90;;;;;;7380913;19;20411;-47
2022/12/01 00:37:43;;;;;;;73.28;35.65;;;6.00;99.90;;;;;;7383612;19;20026;-47
2022/12/01 00:40:10;;;;;;;86.22;37.63;;;6.00;99.90;;;;;;7379434;19;20025;-47
2022/12/01 00:42:36;;;;;;;84.60;36.05;;;6.00;99.90;;;;;;7383215;19;20513;-51
2022/12/01 00:45:03;;;;;;;79.68;38.13;;;6.00;99.90;;;;;;7380696;19;20022;-49
2022/12/01 00:47:29;;;;;;;81.45;36.38;;;6.00;99.90;;;;;;7384655;19;20014;-48
2022/12/01 00:49:56;;;;;;;76.35;38.13;;;6.00;99.90;;;;;;7383226;19;20014;-50
2022/12/01 00:52:23;;;;;;;82.10;37.60;;;6.00;99.90;;;;;;7381235;19;20082;-51
2022/12/01 00:54:49;;;;;;;76.10;39.30;;;6.00;99.90;;;;;;7383316;19;20022;-47
2022/12/01 00:57:15;;;;;;;85.30;39.22;;;6.00;99.90;;;;;;7378597;19;20456;-45
2022/12/01 00:59:41;;;;;;;74.38;34.90;;;6.00;99.90;;;;;;7376882;19;20481;-46
2022/12/01 01:02:08;;;;;;;85.97;38.95;;;6.00;99.90;;;;;;7372379;19;20025;-50
2022/12/01 01:04:35;;;;;;;79.90;39.42;;;6.00;99.90;;;;;;7374645;19;20018;-50
2022/12/01 01:07:02;;;;;;;85.97;38.30;;;6.00;99.90;;;;;;7376897;19;20026;-51
2022/12/01 01:09:29;;;;;;;83.25;38.63;;;6.00;99.90;;;;;;7373048;19;20466;-49
2022/12/01 01:11:55;;;;;;;78.78;39.55;;;6.00;99.90;;;;;;7378542;19;20031;-50
2022/12/01 01:14:23;;;;;;;81.88;37.53;;;6.00;99.90;;;;;;7371732;19;20038;-51
2022/12/01 01:16:49;;;;;;;74.57;36.60;;;6.00;99.90;;;;;;7378477;19;20529;-50
2022/12/01 01:19:16;;;;;;;82.55;38.28;;;6.00;99.90;;;;;;7377637;19;20029;-49
2022/12/01 01:21:42;;;;;;;70.88;35.80;;;6.00;99.90;;;;;;7376720;19;20018;-51
2022/12/01 01:24:08;;;;;;;76.05;37.08;;;6.00;99.90;;;;;;7371695;19;20018;-50
2022/12/01 01:26:35;;;;;;;76.72;38.55;;;6.00;99.90;;;;;;7373871;19;20059;-51
2022/12/01 01:29:05;;;;;;;75.00;37.30;;;6.00;99.90;;;;;;7373554;19;20018;-50
2022/12/01 01:31:31;;;;;;;76.25;37.08;;;5.90;99.90;;;;;;7377309;19;20031;-51
2022/12/01 01:33:58;;;;;;;74.85;36.92;;;6.00;99.90;;;;;;7373847;19;20373;-50
2022/12/01 01:36:25;;;;;;;77.22;36.60;;;6.00;99.90;;;;;;7376272;19;20019;-48
2022/12/01 01:38:52;;;;;;;76.05;38.03;;;6.00;99.90;;;;;;7374971;19;20534;-51
2022/12/01 01:41:19;;;;;;;85.53;38.35;;;6.00;99.90;;;;;;7375571;19;20423;-50
2022/12/01 01:43:55;;;;;;;78.57;39.30;;;6.00;99.90;;;;;;7384488;19;20126;-49
2022/12/01 01:46:27;;;;;;;81.32;36.58;;;6.00;99.90;;;;;;7379198;19;20667;-46
2022/12/01 01:49:00;;;;;;;77.00;37.65;;;6.00;99.90;;;;;;7382169;19;20033;-48
2022/12/01 01:51:47;;;;;;;72.70;35.78;;;6.00;99.90;;;;;;7381874;19;20021;-47
2022/12/01 01:54:30;;;;;;;79.05;36.35;;;6.00;99.90;;;;;;7379295;19;20011;-46
2022/12/01 01:56:58;;;;;;;80.25;38.60;;;6.00;99.90;;;;;;7377210;19;20026;-47
2022/12/01 01:59:29;;;;;;;76.57;37.83;;;6.00;99.90;;;;;;7378295;19;20018;-46
2022/12/01 02:02:05;;;;;;;75.65;38.47;;;5.90;99.90;;;;;;7375230;19;20026;-47
2022/12/01 02:04:59;;;;;;;75.22;37.00;;;5.90;99.90;;;;;;7374206;19;20014;-48
2022/12/01 02:07:25;;;;;;;87.35;38.08;;;6.00;99.90;;;;;;7375711;19;20510;-47
2022/12/01 02:09:53;;;;;;;82.90;37.55;;;6.00;99.90;;;;;;7372755;19;20525;-47
2022/12/01 02:12:31;;;;;;;76.65;37.45;;;6.00;99.90;;;;;;7374025;19;20607;-47
2022/12/01 02:14:58;;;;;;;75.65;38.03;;;6.00;99.90;;;;;;7372729;19;20464;-45
2022/12/01 02:17:35;;;;;;;85.45;39.85;;;6.00;99.90;;;;;;7377984;19;20522;-47
2022/12/01 02:20:30;;;;;;;77.93;36.15;;;6.00;99.90;;;;;;7375448;19;20536;-46
2022/12/01 02:23:21;;;;;;;75.93;37.22;;;5.90;99.90;;;;;;7375185;19;20066;-49
2022/12/01 02:26:13;;;;;;;71.85;38.00;;;6.00;99.90;;;;;;7378211;19;20014;-49
2022/12/01 02:28:58;;;;;;;72.22;37.67;;;6.00;99.90;;;;;;7375695;19;20371;-50
2022/12/01 02:31:48;;;;;;;72.88;39.22;;;6.00;99.90;;;;;;7376005;19;20509;-51
2022/12/01 02:34:29;;;;;;;71.57;37.53;;;6.00;99.90;;;;;;7374487;19;20351;-47
2022/12/01 02:37:05;;;;;;;77.10;39.47;;;5.90;99.90;;;;;;7383886;19;20458;-49
2022/12/01 02:39:54;;;;;;;76.88;37.15;;;6.00;99.90;;;;;;7382804;19;20394;-50
2022/12/01 02:42:50;;;;;;;79.60;38.47;;;6.00;99.90;;;;;;7383694;19;20018;-47
2022/12/01 02:45:40;;;;;;;80.07;40.00;;;5.90;99.90;;;;;;7378034;19;20029;-49
2022/12/01 02:48:16;;;;;;;75.05;39.75;;;6.00;99.90;;;;;;7380722;19;20041;-51
2022/12/01 02:50:44;;;;;;;75.57;38.78;;;5.90;99.90;;;;;;7386719;19;20014;-48
2022/12/01 02:53:15;;;;;;;74.50;38.22;;;5.90;99.90;;;;;;7379097;19;20015;-50
2022/12/01 02:55:53;;;;;;;68.63;36.95;;;5.90;99.90;;;;;;7381772;19;20019;-50
2022/12/01 02:58:20;;;;;;;76.75;38.42;;;5.90;99.90;;;;;;7381382;19;20018;-49
2022/12/01 03:01:25;;;;;;;75.00;40.83;;;5.90;99.90;;;;;;7379131;19;21248;-49
2022/12/01 03:03:57;;;;;;;64.45;37.45;;;5.90;99.90;;;;;;7379813;19;20022;-49
2022/12/01 03:06:35;;;;;;;;;;;5.90;99.90;;;;;;7382155;19;20026;-49
2022/12/01 03:09:11;;;;;;;73.35;38.47;;;5.90;99.90;;;;;;7379421;19;19922;-50
2022/12/01 03:12:00;;;;;;;77.18;39.60;;;5.90;99.90;;;;;;7381191;19;20394;-50
2022/12/01 03:14:41;;;;;;;70.00;38.40;;;5.90;99.90;;;;;;7376224;19;20023;-49
2022/12/01 03:17:14;;;;;;;76.22;40.53;;;5.90;99.90;;;;;;7383381;19;20500;-49
2022/12/01 03:19:48;;;;;;;77.22;39.65;;;5.90;99.90;;;;;;7380227;19;20019;-49
2022/12/01 03:22:30;;;;;;;84.93;41.28;;;5.90;99.90;;;;;;7382019;19;20818;-50
2022/12/01 03:25:00;;;;;;;73.78;38.75;;;5.90;99.90;;;;;;7381272;19;20045;-50
2022/12/01 03:27:30;;;;;;;75.25;38.00;;;5.90;99.90;;;;;;7381189;19;20486;-50
2022/12/01 03:30:00;;;;;;;80.57;41.20;;;5.90;99.90;;;;;;7380633;19;20553;-50
2022/12/01 03:32:37;;;;;;;75.32;39.63;;;5.90;99.90;;;;;;7382458;19;20015;-50
2022/12/01 03:35:07;;;;;;;74.72;41.17;;;5.90;99.90;;;;;;7382655;19;20033;-51
2022/12/01 03:37:45;;;;;;;75.00;38.67;;;5.90;99.90;;;;;;7379268;19;20022;-51
2022/12/01 03:40:16;;;;;;;74.78;39.42;;;5.90;99.90;;;;;;7380497;19;20111;-51
2022/12/01 03:42:53;;;;;;;75.38;39.65;;;5.90;99.90;;;;;;7384437;19;20014;-51
2022/12/01 03:45:30;;;;;;;73.95;37.55;;;5.90;99.90;;;;;;7374545;19;20026;-50
2022/12/01 03:47:56;;;;;;;69.47;38.88;;;5.90;99.90;;;;;;7377885;19;20033;-49
2022/12/01 03:50:28;;;;;;;72.72;37.47;;;5.90;99.90;;;;;;7379599;19;20018;-48
2022/12/01 03:53:03;;;;;;;;;;;5.90;99.90;;;;;;7383569;19;20014;-50
2022/12/01 03:55:36;;;;;;;76.65;38.60;;;5.90;99.90;;;;;;7381663;19;19923;-51
2022/12/01 03:58:05;;;;;;;76.18;38.78;;;5.90;99.90;;;;;;7377413;19;20051;-51
2022/12/01 04:00:32;;;;;;;80.82;42.83;;;5.90;99.90;;;;;;7383206;19;20022;-51
2022/12/01 04:03:01;;;;;;;74.90;38.55;;;5.90;99.90;;;;;;7380234;19;20014;-50
2022/12/01 04:05:28;;;;;;;74.85;39.42;;;5.90;99.90;;;;;;7383946;19;20014;-51
2022/12/01 04:07:54;;;;;;;74.78;39.13;;;5.90;99.90;;;;;;7383230;19;20018;-47
2022/12/01 04:10:21;;;;;;;68.85;37.30;;;5.90;99.90;;;;;;7379554;19;20022;-47
2022/12/01 04:12:47;;;;;;;77.93;39.28;;;5.90;99.90;;;;;;7384753;19;20011;-51
2022/12/01 04:15:14;;;;;;;74.95;39.17;;;5.80;99.90;;;;;;7379227;19;20088;-51
2022/12/01 04:17:42;;;;;;;74.35;38.75;;;5.80;99.90;;;;;;7379647;19;20015;-50
2022/12/01 04:20:09;;;;;;;71.00;38.88;;;5.90;99.90;;;;;;7382555;19;20020;-49
2022/12/01 04:22:35;;;;;;;80.97;40.72;;;5.80;99.90;;;;;;7380174;19;20489;-48
2022/12/01 04:25:03;;;;;;;78.18;40.35;;;5.80;99.90;;;;;;7382680;19;20371;-50
2022/12/01 04:27:29;;;;;;;72.15;38.60;;;5.80;99.90;;;;;;7376616;19;20439;-50
2022/12/01 04:29:55;;;;;;;79.18;41.20;;;5.80;99.90;;;;;;7375588;19;20029;-51
2022/12/01 04:32:21;;;;;;;74.72;40.90;;;5.80;99.90;;;;;;7375912;19;20014;-51
2022/12/01 04:34:48;;;;;;;73.72;38.03;;;5.80;99.90;;;;;;7372725;19;20018;-47
2022/12/01 04:37:17;;;;;;;68.20;38.15;;;5.80;99.90;;;;;;7381324;19;20061;-48
2022/12/01 04:39:43;;;;;;;73.65;37.88;;;5.80;99.90;;;;;;7383931;19;20018;-50
2022/12/01 04:42:10;;;;;;;75.00;37.92;;;5.80;99.90;;;;;;7384752;19;20024;-46
2022/12/01 04:44:36;;;;;;;74.25;38.53;;;5.80;99.90;;;;;;7382841;19;20544;-48
2022/12/01 04:47:04;;;;;;;68.75;37.25;;;5.80;99.90;;;;;;7380840;19;20015;-45
2022/12/01 04:49:31;;;;;;;73.10;38.63;;;5.70;99.90;;;;;;7383279;19;20479;-50
2022/12/01 04:51:57;;;;;;;75.90;38.70;;;5.80;99.90;;;;;;7382346;19;20342;-46
2022/12/01 04:54:23;;;;;;;74.72;38.83;;;5.70;99.90;;;;;;7379073;19;20498;-49
2022/12/01 04:56:50;;;;;;;84.32;41.85;;;5.80;99.90;;;;;;7380085;19;20018;-50
2022/12/01 04:59:16;;;;;;;78.28;39.70;;;5.70;99.90;;;;;;7383926;19;20047;-50
2022/12/01 05:01:43;;;;;;;79.22;40.70;;;5.70;99.90;;;;;;7381809;19;20022;-47
2022/12/01 05:04:12;;;;;;;75.53;38.50;;;5.80;99.90;;;;;;7378872;19;20020;-47
2022/12/01 05:06:39;;;;;;;75.65;36.33;;;5.70;99.90;;;;;;7382481;19;20073;-50
2022/12/01 05:09:07;;;;;;;76.75;39.80;;;5.70;99.90;;;;;;7382424;19;20014;-48
2022/12/01 05:11:33;;;;;;;80.55;41.05;;;5.70;99.90;;;;;;7383312;19;20015;-50
2022/12/01 05:13:59;;;;;;;85.78;42.13;;;5.70;99.90;;;;;;7383354;19;20011;-51
2022/12/01 05:16:29;;;;;;;76.45;40.72;;;5.80;99.90;;;;;;7383170;19;20014;-51
2022/12/01 05:21:44;;;;;;;77.88;38.83;;;5.70;99.90;;;;;;7382942;19;20010;-50
2022/12/01 05:24:12;;;;;;;77.32;40.67;;;5.70;99.90;;;;;;7380508;19;20018;-48
2022/12/01 05:26:39;;;;;;;85.00;42.05;;;5.70;99.90;;;;;;7380783;19;20342;-50
2022/12/01 05:29:06;;;;;;;83.82;42.38;;;5.70;99.90;;;;;;7378687;19;20493;-49
2022/12/01 05:31:33;;;;;;;82.97;41.88;;;5.70;99.90;;;;;;7376272;19;20029;-47
2022/12/01 05:33:59;;;;;;;81.38;40.63;;;5.70;99.90;;;;;;7370141;19;20057;-46
2022/12/01 05:36:25;;;;;;;81.40;42.88;;;5.70;99.90;;;;;;7371606;19;20015;-51
2022/12/01 05:38:51;;;;;;;83.47;41.88;;;5.70;99.90;;;;;;7368924;19;20486;-51
2022/12/01 05:41:18;;;;;;;89.80;42.38;;;5.70;99.90;;;;;;7369240;19;20047;-51
2022/12/01 05:43:44;;;;;;;84.57;41.83;;;5.70;99.90;;;;;;7369177;19;20543;-50
2022/12/01 05:46:10;;;;;;;87.30;43.75;;;5.70;99.90;;;;;;7370806;19;20018;-49
2022/12/01 05:48:36;;;;;;;90.60;42.58;;;5.70;99.90;;;;;;7368127;19;20007;-51
2022/12/01 05:51:14;;;;;;;89.32;41.45;;;5.70;99.90;;;;;;7367777;19;20038;-46
2022/12/01 05:53:42;;;;;;;92.18;42.83;;;5.70;99.90;;;;;;7366462;19;20494;-47
2022/12/01 05:56:08;;;;;;;89.97;43.00;;;5.70;99.90;;;;;;7367129;19;20033;-46
2022/12/01 05:58:36;;;;;;;90.53;43.45;;;5.70;99.90;;;;;;7370268;19;20022;-51
2022/12/01 06:01:03;;;;;;;93.97;45.15;;;5.70;99.90;;;;;;7365631;19;20610;-51
2022/12/01 06:03:29;;;;;;;86.55;43.40;;;5.70;99.90;;;;;;7370250;19;20015;-48
2022/12/01 06:05:58;;;;;;;95.20;45.53;;;5.70;99.90;;;;;;7367540;19;20026;-47
2022/12/01 06:08:24;;;;;;;96.05;44.22;;;5.70;99.90;;;;;;7367426;19;20481;-51
2022/12/01 06:10:50;;;;;;;88.75;43.85;;;5.70;99.90;;;;;;7371946;19;20394;-48
2022/12/01 06:13:16;;;;;;;93.50;44.38;;;5.70;99.90;;;;;;7374802;19;20018;-50
2022/12/01 06:15:43;;;;;;;85.50;43.50;;;5.70;99.90;;;;;;7372172;19;20021;-49
2022/12/01 06:18:09;;;;;;;88.25;44.13;;;5.70;99.90;;;;;;7370782;19;20018;-50
2022/12/01 06:20:35;;;;;;;85.30;43.13;;;5.70;99.90;;;;;;7370224;19;20438;-51
2022/12/01 06:23:02;;;;;;;91.35;45.83;;;5.70;99.90;;;;;;7370967;19;20023;-52
2022/12/01 06:25:28;;;;;;;99.80;44.97;;;5.70;99.90;;;;;;7368350;19;20350;-50
2022/12/01 06:27:58;;;;;;;91.50;44.05;;;5.70;99.90;;;;;;7365569;19;20445;-51
2022/12/01 06:30:25;;;;;;;90.35;44.00;;;5.70;99.90;;;;;;7361230;19;20026;-51
2022/12/01 06:32:51;;;;;;;93.28;45.60;;;5.70;99.90;;;;;;7366605;19;20030;-48
2022/12/01 06:35:17;;;;;;;87.03;43.83;;;5.70;99.90;;;;;;7363146;19;20028;-51
2022/12/01 06:37:44;;;;;;;91.07;42.17;;;5.70;99.90;;;;;;7366554;19;20018;-51
2022/12/01 06:40:11;;;;;;;84.28;41.90;;;5.70;99.90;;;;;;7369339;19;20637;-49
2022/12/01 06:42:37;;;;;;;88.88;41.03;;;5.80;99.90;;;;;;7372858;19;20023;-51
2022/12/01 06:45:04;;;;;;;97.60;44.60;;;5.70;99.90;;;;;;7369055;19;20022;-51
2022/12/01 06:47:30;;;;;;;87.40;43.13;;;5.70;99.90;;;;;;7363351;19;20015;-49
2022/12/01 06:49:56;;;;;;;92.47;43.45;;;5.70;99.90;;;;;;7364081;19;20792;-51
2022/12/01 06:52:23;;;;;;;92.35;44.33;;;5.70;99.90;;;;;;7360267;19;20371;-49
2022/12/01 06:54:49;;;;;;;93.55;43.75;;;5.70;99.90;;;;;;7363845;19;20010;-47
2022/12/01 06:57:15;;;;;;;89.40;42.13;;;5.70;99.90;;;;;;7361204;19;20740;-49
2022/12/01 06:59:42;;;;;;;89.35;41.35;;;5.70;99.90;;;;;;7363801;19;20244;-49
2022/12/01 07:02:10;;;;;;;86.63;43.92;;;5.70;99.90;;;;;;7361963;19;20022;-51
2022/12/01 07:04:36;;;;;;;92.05;43.10;;;5.80;99.90;;;;;;7361584;19;20493;-48
2022/12/01 07:07:04;;;;;;;92.80;43.58;;;5.70;99.90;;;;;;7364802;19;20355;-51
2022/12/01 07:09:30;;;;;;;89.43;43.53;;;5.80;99.90;;;;;;7362164;19;20014;-51
2022/12/01 07:11:57;;;;;;;91.63;42.70;;;5.70;99.90;;;;;;7361984;19;20442;-51
2022/12/01 07:14:25;;;;;;;86.22;43.33;;;5.80;99.90;;;;;;7359148;19;20592;-51
2022/12/01 07:16:52;;;;;;;87.03;43.22;;;5.80;99.90;;;;;;7364458;19;20478;-50
2022/12/01 07:19:18;;;;;;;94.90;43.67;;;5.80;99.90;;;;;;7366868;19;20010;-51
2022/12/01 07:21:45;;;;;;;90.38;43.83;;;5.70;99.90;;;;;;7370918;19;20014;-50
2022/12/01 07:24:11;;;;;;;91.63;42.83;;;5.70;99.90;;;;;;7368538;19;20022;-49
2022/12/01 07:26:39;;;;;;;97.40;45.47;;;5.70;99.90;;;;;;7372200;19;20025;-48
2022/12/01 07:29:05;;;;;;;93.75;43.70;;;5.70;99.90;;;;;;7371026;19;20035;-48
2022/12/01 07:31:31;;;;;;;97.07;43.75;;;5.70;99.90;;;;;;7377545;19;20022;-46
2022/12/01 07:33:58;;;;;;;83.07;41.58;;;5.70;99.90;;;;;;7377814;19;20026;-50
2022/12/01 07:36:24;;;;;;;94.38;42.38;;;5.70;99.90;;;;;;7382233;19;20023;-47
2022/12/01 07:38:50;;;;;;;103.32;46.13;;;5.80;99.90;;;;;;7378219;19;20035;-50
2022/12/01 07:41:21;;;;;;;94.15;42.80;;;5.70;99.90;;;;;;7375626;19;20064;-47
2022/12/01 07:43:49;;;;;;;101.25;46.67;;;5.80;99.90;;;;;;7377031;19;20018;-50
2022/12/01 07:46:26;;;;;;;96.78;46.25;;;5.80;99.90;;;;;;7378755;19;20115;-48
2022/12/01 07:48:53;;;;;;;98.05;45.35;;;5.80;99.90;;;;;;7379762;19;20048;-50
2022/12/01 07:51:21;;;;;;;80.97;39.95;;;5.80;99.90;;;;;;7376918;19;20010;-51
2022/12/01 07:53:49;;;;;;;85.85;42.72;;;5.70;99.90;;;;;;7379701;19;20034;-46
2022/12/01 07:56:16;;;;;;;88.47;43.83;;;5.80;99.90;;;;;;7379025;19;20022;-47
2022/12/01 07:58:43;;;;;;;97.03;44.70;;;5.80;99.90;;;;;;7378797;19;20050;-46
2022/12/01 08:01:15;;;;;;;96.68;42.92;;;5.80;99.90;;;;;;7376883;19;20015;-49
2022/12/01 08:03:42;;;;;;;90.82;41.05;;;5.80;99.90;;;;;;7376929;19;20052;-50
2022/12/01 08:06:09;;;;;;;89.45;43.33;;;5.90;99.90;;;;;;7379049;19;20032;-46
2022/12/01 08:08:37;;;;;;;97.07;44.65;;;5.80;99.90;;;;;;7378292;19;20093;-50
2022/12/01 08:11:06;;;;;;;89.05;43.40;;;5.90;99.90;;;;;;7361889;19;20529;-46
2022/12/01 08:13:32;;;;;;;85.53;42.53;;;5.90;99.90;;;;;;7360394;19;20018;-46
2022/12/01 08:16:03;;;;;;;91.20;43.25;;;6.00;99.90;;;;;;7364657;19;20026;-47
2022/12/01 08:18:30;;;;;;;93.07;43.83;;;6.00;99.90;;;;;;7364182;19;20018;-50
2022/12/01 08:20:59;;;;;;;95.90;45.35;;;5.90;99.90;;;;;;7362166;19;20015;-53
2022/12/01 08:23:25;;;;;;;87.10;41.10;;;6.00;99.90;;;;;;7356675;19;20031;-49
2022/12/01 08:25:51;;;;;;;82.43;41.22;;;6.00;99.90;;;;;;7364336;19;20447;-47
2022/12/01 08:28:19;;;;;;;94.97;44.83;;;6.00;99.90;;;;;;7361748;19;20014;-50
2022/12/01 08:30:46;;;;;;;88.25;42.38;;;6.00;99.90;;;;;;7364718;19;20022;-50
2022/12/01 08:33:12;;;;;;;84.88;42.85;;;6.10;99.90;;;;;;7359826;19;20015;-47
2022/12/01 08:35:38;;;;;;;81.10;42.47;;;6.10;99.90;;;;;;7369018;19;20493;-50
2022/12/01 08:38:04;;;;;;;92.40;43.38;;;6.00;99.90;;;;;;7362085;19;20022;-50
2022/12/01 08:40:30;;;;;;;92.20;42.85;;;6.10;99.90;;;;;;7363716;19;20585;-47
2022/12/01 08:42:57;;;;;;;90.03;44.70;;;6.10;99.90;;;;;;7358668;19;20018;-48
2022/12/01 08:45:23;;;;;;;88.05;43.00;;;6.10;99.90;;;;;;7360800;19;20050;-46
2022/12/01 08:47:49;;;;;;;105.00;44.08;;;6.10;99.90;;;;;;7362362;19;20556;-50
2022/12/01 08:50:16;;;;;;;84.55;42.00;;;6.20;99.90;;;;;;7361080;19;20045;-49
2022/12/01 08:52:42;;;;;;;88.70;43.30;;;6.10;99.90;;;;;;7362890;19;21234;-46
2022/12/01 08:55:08;;;;;;;86.60;44.10;;;6.20;99.90;;;;;;7360056;19;20448;-47
2022/12/01 08:57:34;;;;;;;90.38;42.58;;;6.20;99.90;;;;;;7362528;19;20019;-49
2022/12/01 09:00:01;;;;;;;80.32;41.58;;;6.20;99.90;;;;;;7361869;19;20025;-49
2022/12/01 09:02:28;;;;;;;83.00;42.15;;;6.30;99.90;;;;;;7361593;19;20485;-46
2022/12/01 09:04:55;;;;;;;81.03;41.60;;;6.30;99.90;;;;;;7360665;19;20410;-46
2022/12/01 09:07:21;;;;;;;79.03;39.83;;;6.30;99.90;;;;;;7359241;19;20391;-50
2022/12/01 09:09:47;;;;;;;79.32;41.42;;;6.30;99.90;;;;;;7363195;19;20025;-52
2022/12/01 09:12:13;;;;;;;85.45;41.22;;;6.40;99.90;;;;;;7360917;19;20470;-52
2022/12/01 09:14:42;;;;;;;85.35;41.38;;;6.40;99.90;;;;;;7360558;19;20901;-51
2022/12/01 09:17:08;;;;;;;78.93;40.38;;;6.50;99.90;;;;;;7357874;19;20029;-51
2022/12/01 09:19:35;;;;;;;81.05;39.17;;;6.50;99.90;;;;;;7363651;19;20999;-51
2022/12/01 09:22:01;;;;;;;76.72;39.38;;;6.50;99.90;;;;;;7365514;19;20489;-48
2022/12/01 09:24:27;;;;;;;83.78;40.90;;;6.50;99.90;;;;;;7362164;19;20439;-46
2022/12/01 09:26:55;;;;;;;72.05;38.53;;;6.50;99.90;;;;;;7361684;19;20030;-46
2022/12/01 09:29:21;;;;;;;83.07;42.00;;;6.50;99.90;;;;;;7359973;19;20029;-50
2022/12/01 09:31:48;;;;;;;76.43;40.75;;;6.60;99.90;;;;;;7361549;19;20090;-49
2022/12/01 09:34:17;;;;;;;75.32;40.35;;;6.60;99.90;;;;;;7361203;19;20019;-51
2022/12/01 09:36:44;;;;;;;79.65;41.90;;;6.60;99.90;;;;;;7364995;19;20022;-50
2022/12/01 09:39:16;;;;;;;83.32;39.72;;;6.60;99.90;;;;;;7365056;19;20026;-49
2022/12/01 09:42:06;;;;;;;85.30;42.10;;;6.60;99.90;;;;;;7363504;19;20028;-50
2022/12/01 09:44:44;;;;;;;74.55;36.92;;;6.60;99.90;;;;;;7358851;19;20536;-51
2022/12/01 09:47:18;;;;;;;74.93;37.78;;;6.70;99.90;;;;;;7362293;19;20419;-48
2022/12/01 09:50:05;;;;;;;81.30;39.38;;;6.70;99.90;;;;;;7358293;19;20343;-50
2022/12/01 09:52:46;;;;;;;77.32;40.33;;;6.70;99.90;;;;;;7357096;19;20014;-50
2022/12/01 09:55:15;;;;;;;74.40;37.63;;;6.80;99.90;;;;;;7361185;19;20038;-50
2022/12/01 09:57:45;;;;;;;71.53;38.50;;;6.60;99.90;;;;;;7362679;19;20010;-50
2022/12/01 10:00:17;;;;;;;68.57;38.05;;;6.80;99.90;;;;;;7358034;19;20857;-49
2022/12/01 10:03:05;;;;;;;73.20;38.85;;;6.80;99.90;;;;;;7357513;19;20014;-50
2022/12/01 10:05:54;;;;;;;70.63;36.60;;;6.90;99.90;;;;;;7364103;19;20018;-51
2022/12/01 10:08:30;;;;;;;71.78;37.20;;;6.90;99.90;;;;;;7361206;19;20604;-52
2022/12/01 10:11:15;;;;;;;71.80;37.33;;;6.90;99.90;;;;;;7361201;19;20018;-43
2022/12/01 10:13:41;;;;;;;68.85;37.28;;;6.90;99.90;;;;;;7358320;19;20682;-51
2022/12/01 10:16:11;;;;;;;67.32;35.60;;;6.90;99.90;;;;;;7360599;19;20054;-48
2022/12/01 10:18:46;;;;;;;62.95;35.25;;;6.90;99.90;;;;;;7361729;19;20472;-52
2022/12/01 10:21:39;;;;;;;68.80;36.00;;;7.00;99.90;;;;;;7363401;19;20039;-49
2022/12/01 10:24:05;;;;;;;65.78;36.03;;;7.00;99.90;;;;;;7357591;19;20206;-51
2022/12/01 10:26:45;;;;;;;66.00;35.22;;;7.00;99.90;;;;;;7358473;19;20339;-49
2022/12/01 10:29:29;;;;;;;61.22;33.30;;;7.10;99.90;;;;;;7358894;19;20486;-51
2022/12/01 10:32:00;;;;;;;64.43;34.83;;;7.10;99.90;;;;;;7361934;19;20376;-52
2022/12/01 10:34:32;;;;;;;70.60;35.45;;;7.10;99.90;;;;;;7360611;19;20486;-52
2022/12/01 10:36:58;;;;;;;58.40;32.90;;;7.10;99.90;;;;;;7358248;19;20021;-50
2022/12/01 10:39:37;;;;;;;64.50;33.78;;;7.10;99.90;;;;;;7358892;19;20272;-49
2022/12/01 10:42:05;;;;;;;54.17;29.98;;;7.20;99.90;;;;;;7361336;19;20402;-50
2022/12/01 10:44:33;;;;;;;58.90;32.85;;;7.20;99.90;;;;;;7364126;19;20034;-51
2022/12/01 10:47:02;;;;;;;61.33;34.13;;;7.30;99.90;;;;;;7359178;19;20030;-50
2022/12/01 10:49:39;;;;;;;63.42;33.60;;;7.30;99.90;;;;;;7362422;19;20023;-51
2022/12/01 10:52:06;;;;;;;60.88;34.30;;;7.30;99.90;;;;;;7362915;19;20025;-48
2022/12/01 10:54:36;;;;;;;58.90;32.08;;;7.30;99.90;;;;;;7362705;19;20047;-49
2022/12/01 10:57:04;;;;;;;57.03;33.22;;;7.30;99.90;;;;;;7366538;19;20477;-49
2022/12/01 10:59:44;;;;;;;58.90;32.90;;;7.30;99.90;;;;;;7369478;19;20043;-50
2022/12/01 11:02:18;;;;;;;56.50;33.28;;;7.30;99.90;;;;;;7368576;19;20114;-51
2022/12/01 11:05:17;;;;;;;51.45;31.60;;;7.30;99.90;;;;;;7371413;19;20022;-48
2022/12/01 11:07:46;;;;;;;58.55;32.03;;;7.30;99.90;;;;;;7366778;19;20019;-49
2022/12/01 11:10:18;;;;;;;54.78;31.27;;;7.30;99.90;;;;;;7367667;19;20014;-49
2022/12/01 11:12:54;;;;;;;60.40;32.25;;;7.30;99.90;;;;;;7368969;19;20025;-54
2022/12/01 11:15:24;;;;;;;58.25;32.97;;;7.30;99.90;;;;;;7364250;19;20046;-51
2022/12/01 11:18:21;;;;;;;59.92;32.63;;;7.30;99.90;;;;;;7366921;19;20033;-51
2022/12/01 11:21:03;;;;;;;52.75;31.27;;;7.40;99.90;;;;;;7365802;19;20028;-50
2022/12/01 11:23:29;;;;;;;55.85;31.10;;;7.40;99.90;;;;;;7365192;19;20015;-49
2022/12/01 11:26:12;;;;;;;53.45;32.55;;;7.40;99.90;;;;;;7369546;19;21203;-51
2022/12/01 11:28:52;;;;;;;54.30;30.20;;;7.30;99.90;;;;;;7368358;19;20019;-51
2022/12/01 11:31:20;;;;;;;52.90;31.80;;;7.40;99.90;;;;;;7364545;19;20018;-50
2022/12/01 11:33:48;;;;;;;51.83;33.05;;;7.40;99.90;;;;;;7364230;19;20022;-50
2022/12/01 11:36:41;;;;;;;57.33;31.55;;;7.30;99.90;;;;;;7368199;19;20495;-49
2022/12/01 11:39:22;;;;;;;53.95;33.20;;;7.30;99.90;;;;;;7363694;19;20027;-51
2022/12/01 11:41:55;;;;;;;53.63;32.97;;;7.40;99.90;;;;;;7369847;19;20014;-52
2022/12/01 11:44:22;;;;;;;53.40;31.85;;;7.40;99.90;;;;;;7364263;19;20037;-51
2022/12/01 11:46:48;;;;;;;58.55;31.02;;;7.40;99.90;;;;;;7370002;19;20356;-51
2022/12/01 11:49:21;;;;;;;50.55;31.13;;;7.40;99.90;;;;;;7362855;19;20706;-49
2022/12/01 11:51:48;;;;;;;54.63;32.42;;;7.50;99.90;;;;;;7367659;19;20397;-52
2022/12/01 11:54:25;;;;;;;56.70;33.20;;;7.50;99.90;;;;;;7363126;19;20511;-50
2022/12/01 11:56:53;;;;;;;53.83;31.48;;;7.50;99.90;;;;;;7367434;19;20547;-51
2022/12/01 11:59:25;;;;;;;54.17;31.85;;;7.50;99.90;;;;;;7366449;19;20015;-51
2022/12/01 12:02:00;;;;;;;54.08;30.77;;;7.50;99.90;;;;;;7364700;19;20015;-51
2022/12/01 12:04:54;;;;;;;54.03;31.52;;;7.50;99.90;;;;;;7366651;19;20082;-52
2022/12/01 12:07:46;;;;;;;51.45;30.88;;;7.50;99.90;;;;;;7366542;19;20018;-51
2022/12/01 12:10:26;;;;;;;53.80;32.33;;;7.50;99.90;;;;;;7368285;19;20033;-50
2022/12/01 12:13:07;;;;;;;53.40;32.13;;;7.50;99.90;;;;;;7363557;19;20046;-51
2022/12/01 12:16:01;;;;;;;52.20;29.63;;;7.50;99.90;;;;;;7368325;19;20518;-52
2022/12/01 12:18:49;;;;;;;43.97;28.67;;;7.50;99.90;;;;;;7363204;19;20591;-49
2022/12/01 12:21:30;;;;;;;43.78;28.48;;;7.40;99.90;;;;;;7365395;19;20014;-49
2022/12/01 12:23:59;;;;;;;47.65;29.83;;;7.40;99.90;;;;;;7365676;19;20015;-50
2022/12/01 12:26:38;;;;;;;48.30;29.85;;;7.40;99.90;;;;;;7363325;19;21061;-51
2022/12/01 12:29:48;;;;;;;46.10;27.60;;;7.50;99.90;;;;;;7366313;19;20051;-51
2022/12/01 12:32:42;;;;;;;49.17;29.70;;;7.40;99.90;;;;;;7361295;19;20121;-49
2022/12/01 12:35:29;;;;;;;48.05;29.23;;;7.50;99.90;;;;;;7366884;19;20014;-51
2022/12/01 12:38:28;;;;;;;47.00;28.92;;;7.50;99.90;;;;;;7366326;19;20039;-51
2022/12/01 12:41:13;;;;;;;48.17;30.70;;;7.50;99.90;;;;;;7367377;19;20509;-50
2022/12/01 12:44:02;;;;;;;49.33;30.20;;;7.50;99.90;;;;;;7361072;19;20711;-50
2022/12/01 12:46:43;;;;;;;46.00;27.08;;;7.50;99.90;;;;;;7360470;19;20014;-52
2022/12/01 12:49:35;;;;;;;42.40;28.60;;;7.60;99.90;;;;;;7366404;19;20038;-51
2022/12/01 12:52:06;;;;;;;46.27;27.47;;;7.60;99.90;;;;;;7368141;19;20258;-51
2022/12/01 12:54:42;;;;;;;;;;;7.70;99.90;;;;;;7360640;19;20074;-52
2022/12/01 12:57:22;;;;;;;41.40;25.23;;;7.60;99.90;;;;;;7356659;19;19929;-51
2022/12/01 12:59:54;;;;;;;42.97;28.20;;;7.60;99.90;;;;;;7362901;19;20022;-49
2022/12/01 13:02:30;;;;;;;46.40;27.83;;;7.50;99.90;;;;;;7363233;19;20036;-51